Terminal Aerodrome Forecast
Issued by NWS

Home | Current Version | Previous Version | Graphics & Text | Print | Product List | Glossary On
Versions: 1 2 3 4 5 6 7 8 9 10 11 12 13
000
FTUS43 KPAH 032320
TAFCGI
TAF
KCGI 032320Z 0400/0424 31004KT P6SM VCSH SCT040 BKN090
     FM040200 VRB03KT P6SM SKC
     FM041100 23006KT P6SM BKN070
     FM041500 31014G24KT P6SM BKN070=

USA.gov is the U.S. government's official web portal to all federal, state and local government web resources and services.